Time;durP1;ratioP1;P1;durP2;ratioP2;P2;SDS_P1;SDS_P2;PMS_P1;PMS_P2;Temp;Humidity;BMP_temperature;BMP_pressure;BME280_temperature;BME280_humidity;BME280_pressure;Samples;Min_cycle;Max_cycle;Signal;HPM_P1;HPM_P2
2021/06/10 00:02:18;;;;;;;5.83;5.33;;;;;;;;;;5140577;27;20267;-71
2021/06/10 00:04:45;;;;;;;5.40;4.70;;;;;;;;;;5140551;27;20567;-71
2021/06/10 00:07:15;;;;;;;5.27;4.80;;;;;;;;;;5141283;27;20263;-71
2021/06/10 00:09:43;;;;;;;5.27;4.87;;;;;;;;;;5141161;27;20204;-71
2021/06/10 00:12:11;;;;;;;7.43;5.33;;;;;;;;;;5140161;27;20713;-71
2021/06/10 00:14:38;;;;;;;6.23;5.63;;;;;;;;;;5140431;27;20224;-71
2021/06/10 00:17:06;;;;;;;4.80;4.40;;;;;;;;;;5140611;27;20290;-71
2021/06/10 00:19:34;;;;;;;5.50;5.00;;;;;;;;;;5140279;27;20203;-71
2021/06/10 00:22:01;;;;;;;7.27;5.50;;;;;;;;;;5140751;27;20226;-71
2021/06/10 00:24:30;;;;;;;6.27;5.03;;;;;;;;;;5140718;27;20733;-71
2021/06/10 00:26:58;;;;;;;7.50;5.30;;;;;;;;;;5140101;27;20201;-70
2021/06/10 00:29:25;;;;;;;6.00;5.13;;;;;;;;;;5140215;27;20205;-70
2021/06/10 00:31:53;;;;;;;6.17;5.57;;;;;;;;;;5139729;27;20255;-71
2021/06/10 00:34:20;;;;;;;5.73;5.23;;;;;;;;;;5140271;27;20206;-70
2021/06/10 00:36:48;;;;;;;6.33;5.73;;;;;;;;;;5140513;27;20231;-71
2021/06/10 00:39:15;;;;;;;6.30;5.57;;;;;;;;;;5140254;27;20205;-71
2021/06/10 00:41:44;;;;;;;6.40;5.57;;;;;;;;;;5140344;27;20229;-71
2021/06/10 00:44:11;;;;;;;5.93;5.33;;;;;;;;;;5140406;27;20218;-70
2021/06/10 00:46:39;;;;;;;5.93;5.30;;;;;;;;;;5140076;27;20205;-70
2021/06/10 00:49:06;;;;;;;5.70;5.20;;;;;;;;;;5139516;27;20203;-70
2021/06/10 00:51:37;;;;;;;5.90;5.30;;;;;;;;;;5139530;27;20229;-71
2021/06/10 00:54:05;;;;;;;5.90;5.40;;;;;;;;;;5139208;27;20199;-70
2021/06/10 00:56:32;;;;;;;5.33;4.83;;;;;;;;;;5139363;27;20235;-71
2021/06/10 00:59:01;;;;;;;6.00;5.43;;;;;;;;;;5139324;27;20287;-71
2021/06/10 01:01:29;;;;;;;6.83;5.43;;;;;;;;;;5139062;27;20236;-70
2021/06/10 01:03:57;;;;;;;6.03;5.03;;;;;;;;;;5139166;27;20208;-70
2021/06/10 01:06:26;;;;;;;7.10;5.07;;;;;;;;;;5139360;27;20207;-71
2021/06/10 01:08:57;;;;;;;5.43;5.03;;;;;;;;;;5139378;27;20241;-70
2021/06/10 01:11:27;;;;;;;5.10;4.60;;;;;;;;;;5138983;27;20239;-70
2021/06/10 01:13:59;;;;;;;5.23;4.73;;;;;;;;;;5137660;27;20202;-70
2021/06/10 01:16:30;;;;;;;5.57;5.07;;;;;;;;;;5138958;27;20307;-70
2021/06/10 01:19:01;;;;;;;7.23;4.87;;;;;;;;;;5126044;27;20711;-70
2021/06/10 01:21:29;;;;;;;4.77;4.37;;;;;;;;;;5139801;27;20224;-71
2021/06/10 01:24:02;;;;;;;5.73;5.23;;;;;;;;;;5139478;27;20579;-71
2021/06/10 01:26:32;;;;;;;5.27;4.77;;;;;;;;;;5139456;27;20575;-71
2021/06/10 01:29:01;;;;;;;5.40;4.90;;;;;;;;;;5128360;27;20209;-69
2021/06/10 01:31:29;;;;;;;7.37;4.57;;;;;;;;;;5138460;27;20243;-71
2021/06/10 01:33:57;;;;;;;6.83;5.50;;;;;;;;;;5139037;27;20206;-70
2021/06/10 01:36:26;;;;;;;5.60;5.00;;;;;;;;;;5139046;27;20230;-70
2021/06/10 01:38:57;;;;;;;5.43;4.93;;;;;;;;;;5139105;27;20208;-70
2021/06/10 01:41:26;;;;;;;4.90;4.40;;;;;;;;;;5138828;27;20236;-70
2021/06/10 01:43:53;;;;;;;5.00;4.60;;;;;;;;;;5138741;27;20208;-70
2021/06/10 01:46:24;;;;;;;5.57;5.07;;;;;;;;;;5138480;27;20679;-70
2021/06/10 01:48:52;;;;;;;6.37;5.10;;;;;;;;;;5138996;27;20207;-71
2021/06/10 01:51:21;;;;;;;5.40;4.90;;;;;;;;;;5139143;27;20240;-71
2021/06/10 01:53:49;;;;;;;8.03;4.83;;;;;;;;;;5138923;27;20205;-71
2021/06/10 01:56:17;;;;;;;5.17;4.60;;;;;;;;;;5139184;27;20228;-71
2021/06/10 01:58:45;;;;;;;7.33;5.33;;;;;;;;;;5138948;27;20210;-71
2021/06/10 02:01:14;;;;;;;5.60;5.10;;;;;;;;;;5129498;27;20230;-71
2021/06/10 02:03:44;;;;;;;5.37;4.80;;;;;;;;;;5135518;27;20211;-71
2021/06/10 02:06:12;;;;;;;5.80;5.30;;;;;;;;;;5139245;27;20291;-71
2021/06/10 02:08:40;;;;;;;5.73;5.13;;;;;;;;;;5138959;27;20211;-71
2021/06/10 02:11:08;;;;;;;7.03;5.33;;;;;;;;;;5138820;27;20213;-71
2021/06/10 02:13:36;;;;;;;5.70;5.17;;;;;;;;;;5123247;27;20217;-71
2021/06/10 02:16:05;;;;;;;7.73;5.40;;;;;;;;;;5130363;27;20235;-71
2021/06/10 02:18:33;;;;;;;6.00;5.50;;;;;;;;;;5138202;27;20209;-71
2021/06/10 02:21:03;;;;;;;5.00;4.60;;;;;;;;;;5138122;27;20210;-71
2021/06/10 02:23:31;;;;;;;6.37;5.77;;;;;;;;;;5124709;27;20209;-71
2021/06/10 02:25:59;;;;;;;6.10;5.37;;;;;;;;;;5137995;27;20205;-71
2021/06/10 02:28:26;;;;;;;6.27;5.47;;;;;;;;;;5138268;27;20203;-71
2021/06/10 02:30:54;;;;;;;9.10;5.67;;;;;;;;;;5137648;28;20235;-71
2021/06/10 02:33:22;;;;;;;5.50;5.00;;;;;;;;;;5138128;28;20690;-71
2021/06/10 02:35:49;;;;;;;7.90;5.23;;;;;;;;;;5138083;28;20236;-70
2021/06/10 02:38:19;;;;;;;5.43;4.87;;;;;;;;;;5138749;28;20299;-71
2021/06/10 02:40:49;;;;;;;6.07;5.47;;;;;;;;;;5138328;27;20207;-71
2021/06/10 02:43:16;;;;;;;8.10;6.17;;;;;;;;;;5142123;27;20316;-71
2021/06/10 02:45:45;;;;;;;4.63;4.23;;;;;;;;;;5142386;27;20216;-71
2021/06/10 02:48:13;;;;;;;6.47;5.20;;;;;;;;;;5142463;27;20216;-71
2021/06/10 02:50:41;;;;;;;5.53;5.03;;;;;;;;;;5141642;27;20675;-70
2021/06/10 02:53:14;;;;;;;6.87;6.07;;;;;;;;;;5142211;27;20246;-71
2021/06/10 02:55:44;;;;;;;6.33;5.00;;;;;;;;;;5141981;27;20313;-71
2021/06/10 02:58:15;;;;;;;5.50;4.90;;;;;;;;;;5141932;27;20635;-71
2021/06/10 03:00:43;;;;;;;6.13;5.53;;;;;;;;;;5141790;27;20202;-71
2021/06/10 03:03:11;;;;;;;7.90;5.13;;;;;;;;;;5141415;27;20220;-70
2021/06/10 03:05:39;;;;;;;5.93;4.83;;;;;;;;;;5141110;27;20212;-70
2021/06/10 03:08:07;;;;;;;5.50;5.03;;;;;;;;;;5141456;27;20209;-70
2021/06/10 03:10:35;;;;;;;7.00;5.43;;;;;;;;;;5141055;27;20578;-70
2021/06/10 03:13:04;;;;;;;6.07;5.47;;;;;;;;;;5140371;27;20220;-70
2021/06/10 03:15:33;;;;;;;5.83;5.20;;;;;;;;;;5140710;27;20237;-71
2021/06/10 03:18:01;;;;;;;7.00;5.77;;;;;;;;;;5140726;27;20576;-70
2021/06/10 03:20:28;;;;;;;5.70;5.10;;;;;;;;;;5141226;27;20207;-71
2021/06/10 03:22:56;;;;;;;6.57;5.60;;;;;;;;;;5141577;27;20227;-70
2021/06/10 03:25:24;;;;;;;5.97;5.37;;;;;;;;;;5141556;27;20569;-71
2021/06/10 03:27:52;;;;;;;8.73;5.70;;;;;;;;;;5141340;27;20293;-70
2021/06/10 03:30:23;;;;;;;6.03;5.40;;;;;;;;;;5141194;27;20273;-70
2021/06/10 03:32:51;;;;;;;5.67;5.17;;;;;;;;;;5141467;27;20239;-70
2021/06/10 03:35:19;;;;;;;6.10;5.03;;;;;;;;;;5141370;27;20208;-71
2021/06/10 03:37:47;;;;;;;6.97;5.57;;;;;;;;;;5127979;27;20272;-70
2021/06/10 03:40:16;;;;;;;5.77;5.13;;;;;;;;;;5141370;27;20203;-71
2021/06/10 03:42:43;;;;;;;5.93;5.10;;;;;;;;;;5141332;27;20313;-70
2021/06/10 03:45:13;;;;;;;6.60;5.47;;;;;;;;;;5141154;27;20200;-71
2021/06/10 03:47:43;;;;;;;6.00;5.40;;;;;;;;;;5141120;27;20202;-71
2021/06/10 03:50:11;;;;;;;6.23;5.63;;;;;;;;;;5141010;27;20217;-71
2021/06/10 03:52:39;;;;;;;5.57;5.07;;;;;;;;;;5139863;27;20686;-71
2021/06/10 03:55:08;;;;;;;6.60;5.13;;;;;;;;;;5140620;27;20203;-71
2021/06/10 03:57:36;;;;;;;6.60;5.47;;;;;;;;;;5140531;27;20237;-70
2021/06/10 04:00:05;;;;;;;6.33;4.93;;;;;;;;;;5140784;27;20206;-70
2021/06/10 04:02:35;;;;;;;6.47;5.20;;;;;;;;;;5141148;27;20229;-70
2021/06/10 04:05:05;;;;;;;7.90;5.87;;;;;;;;;;5140668;27;20217;-69
2021/06/10 04:07:32;;;;;;;6.40;5.50;;;;;;;;;;5140599;27;20352;-70
2021/06/10 04:10:00;;;;;;;5.37;4.87;;;;;;;;;;5140743;27;20204;-70
2021/06/10 04:12:27;;;;;;;6.70;5.00;;;;;;;;;;5133953;27;20223;-70
2021/06/10 04:14:55;;;;;;;6.50;4.93;;;;;;;;;;5140719;27;20208;-70
2021/06/10 04:17:22;;;;;;;5.80;5.30;;;;;;;;;;5141275;27;20244;-69
2021/06/10 04:19:50;;;;;;;6.27;5.60;;;;;;;;;;5140745;27;20203;-69
2021/06/10 04:22:19;;;;;;;6.33;5.73;;;;;;;;;;5139995;27;20832;-69
2021/06/10 04:24:46;;;;;;;7.10;5.60;;;;;;;;;;5140511;27;20206;-70
2021/06/10 04:27:13;;;;;;;6.17;5.67;;;;;;;;;;5140644;27;20284;-69
2021/06/10 04:29:41;;;;;;;7.33;5.60;;;;;;;;;;5126550;27;20569;-70
2021/06/10 04:32:09;;;;;;;7.47;5.67;;;;;;;;;;5140426;27;20701;-69
2021/06/10 04:34:36;;;;;;;8.17;5.47;;;;;;;;;;5140443;27;20212;-69
2021/06/10 04:37:04;;;;;;;6.80;5.50;;;;;;;;;;5140331;27;20225;-69
2021/06/10 04:39:33;;;;;;;5.80;5.30;;;;;;;;;;5140514;27;20208;-70
2021/06/10 04:42:00;;;;;;;7.67;6.30;;;;;;;;;;5140285;27;20231;-67
2021/06/10 04:44:28;;;;;;;7.57;5.73;;;;;;;;;;5139987;27;20207;-67
2021/06/10 04:46:55;;;;;;;10.63;6.20;;;;;;;;;;5139750;27;20216;-66
2021/06/10 04:49:23;;;;;;;11.03;6.37;;;;;;;;;;5139651;27;20219;-66
2021/06/10 04:51:50;;;;;;;7.40;5.83;;;;;;;;;;5139313;27;20872;-66
2021/06/10 04:54:18;;;;;;;10.00;6.30;;;;;;;;;;5139754;27;20196;-65
2021/06/10 04:56:47;;;;;;;7.77;6.03;;;;;;;;;;5139264;27;20220;-65
2021/06/10 04:59:14;;;;;;;9.77;6.97;;;;;;;;;;5139126;27;20209;-65
2021/06/10 05:01:41;;;;;;;7.67;6.17;;;;;;;;;;5139546;27;20228;-65
2021/06/10 05:04:09;;;;;;;7.53;5.93;;;;;;;;;;5138495;27;20652;-66
2021/06/10 05:06:37;;;;;;;10.97;6.50;;;;;;;;;;5139691;27;20209;-66
2021/06/10 05:09:05;;;;;;;10.80;5.90;;;;;;;;;;5139745;27;20678;-66
2021/06/10 05:11:32;;;;;;;7.57;6.23;;;;;;;;;;5139177;27;20231;-66
2021/06/10 05:14:01;;;;;;;8.37;6.83;;;;;;;;;;5130474;27;20205;-66
2021/06/10 05:16:29;;;;;;;6.73;5.77;;;;;;;;;;5139049;27;20226;-66
2021/06/10 05:18:56;;;;;;;8.83;6.00;;;;;;;;;;5135228;27;20206;-66
2021/06/10 05:21:24;;;;;;;6.60;6.00;;;;;;;;;;5128943;27;20719;-66
2021/06/10 05:23:51;;;;;;;6.87;6.17;;;;;;;;;;5128374;27;20687;-65
2021/06/10 05:26:19;;;;;;;6.67;5.97;;;;;;;;;;5130530;27;20202;-66
2021/06/10 05:28:46;;;;;;;5.90;5.40;;;;;;;;;;5137846;27;20209;-66
2021/06/10 05:31:15;;;;;;;15.13;6.30;;;;;;;;;;5138291;27;20243;-66
2021/06/10 05:33:43;;;;;;;6.87;5.10;;;;;;;;;;5138917;27;20202;-66
2021/06/10 05:36:10;;;;;;;8.07;5.20;;;;;;;;;;5135227;27;20286;-66
2021/06/10 05:38:38;;;;;;;6.73;5.80;;;;;;;;;;5139368;27;20289;-66
2021/06/10 05:41:05;;;;;;;7.13;6.00;;;;;;;;;;5139397;27;20210;-66
2021/06/10 05:43:34;;;;;;;6.23;5.43;;;;;;;;;;5139245;27;20209;-67
2021/06/10 05:46:02;;;;;;;8.10;5.80;;;;;;;;;;5138754;27;20207;-68
2021/06/10 05:48:31;;;;;;;9.87;6.30;;;;;;;;;;5138441;27;20259;-67
2021/06/10 05:50:58;;;;;;;9.57;6.93;;;;;;;;;;5134868;27;20213;-68
2021/06/10 05:53:26;;;;;;;34.20;9.13;;;;;;;;;;5129517;27;20195;-66
2021/06/10 05:55:53;;;;;;;1017.00;687.33;;;;;;;;;;5130754;27;20193;-66
2021/06/10 05:58:21;;;;;;;388.07;290.57;;;;;;;;;;5135845;27;20226;-70
2021/06/10 06:00:50;;;;;;;460.67;319.00;;;;;;;;;;5138078;27;20256;-69
2021/06/10 06:03:18;;;;;;;125.33;76.37;;;;;;;;;;5137992;27;20262;-69
2021/06/10 06:05:47;;;;;;;21.33;14.20;;;;;;;;;;5138232;27;20239;-69
2021/06/10 06:08:16;;;;;;;9.50;7.60;;;;;;;;;;5137795;27;20201;-69
2021/06/10 06:11:18;;;;;;;9.10;7.73;;;;;;;;;;5138268;27;20212;-67
2021/06/10 06:13:47;;;;;;;9.33;7.53;;;;;;;;;;5137084;27;20207;-68
2021/06/10 06:16:15;;;;;;;10.67;7.73;;;;;;;;;;5137769;27;20225;-68
2021/06/10 06:18:43;;;;;;;10.73;8.43;;;;;;;;;;5138465;27;20222;-68
2021/06/10 06:21:11;;;;;;;9.33;7.13;;;;;;;;;;5138549;27;20211;-68
2021/06/10 06:23:40;;;;;;;7.87;6.30;;;;;;;;;;5138455;27;20211;-68
2021/06/10 06:26:21;;;;;;;7.30;6.60;;;;;;;;;;5138777;27;20222;-68
2021/06/10 06:28:48;;;;;;;8.27;7.00;;;;;;;;;;5137954;27;20211;-68
2021/06/10 06:31:16;;;;;;;8.43;6.23;;;;;;;;;;5137629;28;20236;-68
2021/06/10 06:33:43;;;;;;;9.10;6.73;;;;;;;;;;5137800;28;20235;-68
2021/06/10 06:36:12;;;;;;;8.17;7.33;;;;;;;;;;5138266;28;20716;-68
2021/06/10 06:38:39;;;;;;;14.70;13.10;;;;;;;;;;5137710;28;20228;-67
2021/06/10 06:41:06;;;;;;;8.17;7.03;;;;;;;;;;5138465;28;20649;-68
2021/06/10 06:43:33;;;;;;;7.57;6.77;;;;;;;;;;5138110;28;20207;-67
2021/06/10 06:46:02;;;;;;;7.57;6.77;;;;;;;;;;5137815;28;20208;-67
2021/06/10 06:48:30;;;;;;;8.30;7.00;;;;;;;;;;5138030;28;20593;-68
2021/06/10 06:50:58;;;;;;;8.03;6.53;;;;;;;;;;5137664;28;20212;-68
2021/06/10 06:53:29;;;;;;;11.97;7.07;;;;;;;;;;5134560;28;20245;-67
2021/06/10 06:56:12;;;;;;;21.03;15.30;;;;;;;;;;5137853;28;20208;-68
2021/06/10 06:58:43;;;;;;;8.37;6.80;;;;;;;;;;5133781;28;20738;-68
2021/06/10 07:01:10;;;;;;;7.40;6.60;;;;;;;;;;5132620;28;20207;-68
2021/06/10 07:03:37;;;;;;;6.67;6.07;;;;;;;;;;5133652;28;20200;-68
2021/06/10 07:06:05;;;;;;;7.30;6.40;;;;;;;;;;5130385;28;20247;-67
2021/06/10 07:08:33;;;;;;;7.00;5.80;;;;;;;;;;5133411;28;20203;-67
2021/06/10 07:11:02;;;;;;;7.43;6.50;;;;;;;;;;5131191;28;20286;-68
2021/06/10 07:13:29;;;;;;;6.43;5.83;;;;;;;;;;5135158;28;20205;-67
2021/06/10 07:15:56;;;;;;;7.10;6.40;;;;;;;;;;5137474;28;20205;-68
2021/06/10 07:18:24;;;;;;;7.50;6.70;;;;;;;;;;5137403;28;20631;-67
2021/06/10 07:20:51;;;;;;;7.23;6.30;;;;;;;;;;5137734;28;20657;-67
2021/06/10 07:23:18;;;;;;;7.87;6.50;;;;;;;;;;5137722;28;20649;-67
2021/06/10 07:25:47;;;;;;;8.33;6.67;;;;;;;;;;5137828;28;20724;-69
2021/06/10 07:28:14;;;;;;;6.77;6.17;;;;;;;;;;5138879;27;20199;-67
2021/06/10 07:30:42;;;;;;;7.00;6.30;;;;;;;;;;5139689;27;20239;-69
2021/06/10 07:33:09;;;;;;;7.67;6.90;;;;;;;;;;5140028;27;21626;-68
2021/06/10 07:35:36;;;;;;;8.33;6.90;;;;;;;;;;5140855;27;20206;-68
2021/06/10 07:38:04;;;;;;;7.07;6.40;;;;;;;;;;5140000;27;20248;-69
2021/06/10 07:40:32;;;;;;;6.70;6.00;;;;;;;;;;5140941;27;20211;-68
2021/06/10 07:43:00;;;;;;;8.83;7.10;;;;;;;;;;5140477;27;20269;-70
2021/06/10 07:45:28;;;;;;;7.43;6.20;;;;;;;;;;5140245;27;20256;-70
2021/06/10 07:47:55;;;;;;;8.80;6.83;;;;;;;;;;5141099;27;20225;-70
2021/06/10 07:50:23;;;;;;;8.43;6.63;;;;;;;;;;5141130;27;20211;-69
2021/06/10 07:52:50;;;;;;;7.50;6.27;;;;;;;;;;5140537;27;20227;-69
2021/06/10 07:55:19;;;;;;;7.40;5.67;;;;;;;;;;5140784;27;20208;-70
2021/06/10 07:57:46;;;;;;;7.27;6.57;;;;;;;;;;5140902;27;20223;-69
2021/06/10 08:00:16;;;;;;;7.07;6.37;;;;;;;;;;5140049;27;20204;-70
2021/06/10 08:02:44;;;;;;;8.30;7.50;;;;;;;;;;5140263;27;20691;-69
2021/06/10 08:05:12;;;;;;;10.20;8.30;;;;;;;;;;5140584;27;20219;-68
2021/06/10 08:07:42;;;;;;;9.17;7.23;;;;;;;;;;5140750;27;20201;-72
2021/06/10 08:10:10;;;;;;;6.53;5.93;;;;;;;;;;5140950;27;20598;-69
2021/06/10 08:12:37;;;;;;;7.30;6.50;;;;;;;;;;5134734;27;20240;-70
2021/06/10 08:15:05;;;;;;;7.27;6.67;;;;;;;;;;5140749;27;20284;-70
2021/06/10 08:17:38;;;;;;;10.13;6.53;;;;;;;;;;5140722;27;20231;-69
2021/06/10 08:20:08;;;;;;;7.20;6.00;;;;;;;;;;5137184;27;20203;-69
2021/06/10 08:22:35;;;;;;;9.03;6.27;;;;;;;;;;5138922;27;20226;-70
2021/06/10 08:25:02;;;;;;;6.47;5.80;;;;;;;;;;5140135;27;20214;-69
2021/06/10 08:27:30;;;;;;;6.20;5.60;;;;;;;;;;5139697;27;20194;-71
2021/06/10 08:29:57;;;;;;;7.60;6.87;;;;;;;;;;5139093;27;20225;-70
2021/06/10 08:32:24;;;;;;;8.63;7.13;;;;;;;;;;5126039;27;20749;-70
2021/06/10 08:34:53;;;;;;;6.77;6.17;;;;;;;;;;5139916;27;20204;-70
2021/06/10 08:37:20;;;;;;;8.67;6.90;;;;;;;;;;5139458;27;20223;-71
2021/06/10 08:39:47;;;;;;;7.37;6.67;;;;;;;;;;5140014;27;20229;-70
2021/06/10 08:42:15;;;;;;;10.13;6.93;;;;;;;;;;5139906;27;20224;-70
2021/06/10 08:44:43;;;;;;;11.23;7.40;;;;;;;;;;5134059;27;20895;-71
2021/06/10 08:47:12;;;;;;;7.60;6.60;;;;;;;;;;5140134;27;20203;-71
2021/06/10 08:49:44;;;;;;;8.97;7.00;;;;;;;;;;5140512;27;20213;-72
2021/06/10 08:52:13;;;;;;;7.83;7.13;;;;;;;;;;5140129;27;20241;-70
2021/06/10 08:54:41;;;;;;;8.80;6.37;;;;;;;;;;5139651;27;20941;-70
2021/06/10 08:57:08;;;;;;;7.57;6.80;;;;;;;;;;5140098;27;20970;-71
2021/06/10 08:59:35;;;;;;;13.77;6.77;;;;;;;;;;5139679;27;20237;-70
2021/06/10 09:02:07;;;;;;;8.40;7.03;;;;;;;;;;5139850;27;20226;-70
2021/06/10 09:04:35;;;;;;;7.73;6.43;;;;;;;;;;5139766;27;20268;-71
2021/06/10 09:07:04;;;;;;;8.30;7.40;;;;;;;;;;5139876;27;20233;-69
2021/06/10 09:09:36;;;;;;;7.97;7.23;;;;;;;;;;5140038;27;20611;-69
2021/06/10 09:12:06;;;;;;;12.00;8.03;;;;;;;;;;5134748;27;20223;-71
2021/06/10 09:14:48;;;;;;;11.40;8.03;;;;;;;;;;5136942;27;20653;-70
2021/06/10 09:17:26;;;;;;;7.80;7.00;;;;;;;;;;5139283;27;20671;-70
2021/06/10 09:19:53;;;;;;;7.77;7.03;;;;;;;;;;5139467;27;20236;-70
2021/06/10 09:22:38;;;;;;;14.13;7.47;;;;;;;;;;5138688;27;20225;-69
2021/06/10 09:25:08;;;;;;;7.87;7.07;;;;;;;;;;5139132;27;20207;-69
2021/06/10 09:27:49;;;;;;;11.17;8.20;;;;;;;;;;5138619;27;20206;-69
2021/06/10 09:30:27;;;;;;;8.33;7.53;;;;;;;;;;5139228;27;20674;-69
2021/06/10 09:32:54;;;;;;;9.00;8.07;;;;;;;;;;5139618;27;20225;-70
2021/06/10 09:35:26;;;;;;;8.30;7.47;;;;;;;;;;5139208;27;20208;-69
2021/06/10 09:37:57;;;;;;;59.40;10.10;;;;;;;;;;5139225;27;20738;-65
2021/06/10 09:40:26;;;;;;;255.40;176.83;;;;;;;;;;5139001;27;20218;-70
2021/06/10 09:42:53;;;;;;;10.73;9.73;;;;;;;;;;5125579;27;20684;-70
2021/06/10 09:45:21;;;;;;;7.90;7.17;;;;;;;;;;5129807;27;20192;-70
2021/06/10 09:47:51;;;;;;;8.80;7.33;;;;;;;;;;5130636;27;20392;-70
2021/06/10 09:50:21;;;;;;;8.50;7.70;;;;;;;;;;5138355;27;20635;-71
2021/06/10 09:52:53;;;;;;;7.97;7.13;;;;;;;;;;5138157;27;20628;-71
2021/06/10 09:55:33;;;;;;;9.07;8.07;;;;;;;;;;5125000;27;20214;-72
2021/06/10 09:58:22;;;;;;;8.00;7.20;;;;;;;;;;5138089;27;20236;-73
2021/06/10 10:00:56;;;;;;;8.53;7.57;;;;;;;;;;5129946;27;20290;-74
2021/06/10 10:03:41;;;;;;;8.70;7.00;;;;;;;;;;5135751;27;20204;-72
2021/06/10 10:06:16;;;;;;;8.10;6.47;;;;;;;;;;5138667;27;20717;-72
2021/06/10 10:08:44;;;;;;;8.47;6.93;;;;;;;;;;5137950;27;20251;-72
2021/06/10 10:11:14;;;;;;;9.53;7.70;;;;;;;;;;5139259;27;20204;-73
2021/06/10 10:13:43;;;;;;;10.00;7.53;;;;;;;;;;5138609;27;20210;-69
2021/06/10 10:16:11;;;;;;;8.33;7.50;;;;;;;;;;5138611;27;20200;-71
2021/06/10 10:18:38;;;;;;;9.53;7.47;;;;;;;;;;5138387;27;20232;-71
2021/06/10 10:21:06;;;;;;;8.03;7.20;;;;;;;;;;5138269;27;20200;-72
2021/06/10 10:23:34;;;;;;;9.30;6.93;;;;;;;;;;5138281;27;20229;-72
2021/06/10 10:26:03;;;;;;;9.47;6.93;;;;;;;;;;5138124;27;20211;-72
2021/06/10 10:28:33;;;;;;;8.30;7.10;;;;;;;;;;5138233;27;20200;-72
2021/06/10 10:31:02;;;;;;;8.43;6.63;;;;;;;;;;5133044;27;20301;-72
2021/06/10 10:33:29;;;;;;;8.00;6.83;;;;;;;;;;5137852;28;20230;-72
2021/06/10 10:35:57;;;;;;;7.37;6.63;;;;;;;;;;5137386;28;20204;-72
2021/06/10 10:38:35;;;;;;;7.97;6.83;;;;;;;;;;5136926;28;20224;-73
2021/06/10 10:41:10;;;;;;;8.50;7.70;;;;;;;;;;5136438;28;20203;-72
2021/06/10 10:43:39;;;;;;;7.03;6.43;;;;;;;;;;5135097;28;20229;-71
2021/06/10 10:46:07;;;;;;;7.70;7.00;;;;;;;;;;5136812;28;20204;-72
2021/06/10 10:48:36;;;;;;;7.87;7.13;;;;;;;;;;5137196;28;20230;-71
2021/06/10 10:51:21;;;;;;;7.40;6.73;;;;;;;;;;5137387;28;20209;-71
2021/06/10 10:53:54;;;;;;;9.23;7.17;;;;;;;;;;5137741;28;20211;-70
2021/06/10 10:56:33;;;;;;;7.00;6.37;;;;;;;;;;5137943;28;20203;-69
2021/06/10 10:59:18;;;;;;;7.07;6.23;;;;;;;;;;5138433;28;20227;-71
2021/06/10 11:02:01;;;;;;;7.13;6.43;;;;;;;;;;5138346;27;20270;-72
2021/06/10 11:04:48;;;;;;;8.73;6.67;;;;;;;;;;5128885;27;20216;-70
2021/06/10 11:07:34;;;;;;;154.53;92.03;;;;;;;;;;5141765;27;20236;-69
2021/06/10 11:10:01;;;;;;;10.77;7.77;;;;;;;;;;5142265;27;20256;-69
2021/06/10 11:12:43;;;;;;;10.63;6.33;;;;;;;;;;5141583;27;20211;-69
2021/06/10 11:15:44;;;;;;;9.93;6.30;;;;;;;;;;5141237;27;20213;-70
2021/06/10 11:18:13;;;;;;;6.33;5.67;;;;;;;;;;5142122;27;20759;-70
2021/06/10 11:20:41;;;;;;;7.53;6.10;;;;;;;;;;5128628;27;20214;-70
2021/06/10 11:23:12;;;;;;;6.67;6.07;;;;;;;;;;5137190;27;20703;-70
2021/06/10 11:25:44;;;;;;;8.13;5.70;;;;;;;;;;5141307;27;20201;-70
2021/06/10 11:28:12;;;;;;;5.60;5.07;;;;;;;;;;5141432;27;20203;-70
2021/06/10 11:30:40;;;;;;;8.57;5.07;;;;;;;;;;5140783;27;20240;-69
2021/06/10 11:33:08;;;;;;;5.83;5.23;;;;;;;;;;5140795;27;20221;-70
2021/06/10 11:35:41;;;;;;;5.93;5.27;;;;;;;;;;5141517;27;20201;-69
2021/06/10 11:38:17;;;;;;;5.97;5.43;;;;;;;;;;5141367;27;20205;-70
2021/06/10 11:40:45;;;;;;;6.90;5.50;;;;;;;;;;5141494;27;20640;-70
2021/06/10 11:43:13;;;;;;;5.80;5.20;;;;;;;;;;5140459;27;20225;-70
2021/06/10 11:45:44;;;;;;;6.40;5.67;;;;;;;;;;5140264;27;20205;-70
2021/06/10 11:48:11;;;;;;;5.43;4.93;;;;;;;;;;5141111;27;20224;-70
2021/06/10 11:50:39;;;;;;;6.20;4.93;;;;;;;;;;5140966;27;20227;-69
2021/06/10 11:53:08;;;;;;;5.70;5.20;;;;;;;;;;5140407;27;20256;-67
2021/06/10 11:55:36;;;;;;;6.10;5.40;;;;;;;;;;5139478;27;20203;-69
2021/06/10 11:58:05;;;;;;;6.27;5.33;;;;;;;;;;5140333;27;20250;-69
2021/06/10 12:00:34;;;;;;;6.40;5.60;;;;;;;;;;5139719;27;20522;-69
2021/06/10 12:03:03;;;;;;;6.13;5.53;;;;;;;;;;5139797;27;20230;-69
2021/06/10 12:05:32;;;;;;;6.37;5.70;;;;;;;;;;5140089;27;20205;-69
2021/06/10 12:08:08;;;;;;;6.90;5.47;;;;;;;;;;5139611;27;20257;-69
2021/06/10 12:10:35;;;;;;;8.27;6.17;;;;;;;;;;5140257;27;20700;-69
2021/06/10 12:13:03;;;;;;;7.00;5.80;;;;;;;;;;5135958;27;20223;-68
2021/06/10 12:15:36;;;;;;;7.17;5.20;;;;;;;;;;5139845;27;20214;-69
2021/06/10 12:18:04;;;;;;;5.03;4.63;;;;;;;;;;5139768;27;20204;-69
2021/06/10 12:20:50;;;;;;;5.60;4.83;;;;;;;;;;5140846;27;20213;-70
2021/06/10 12:23:20;;;;;;;7.37;6.23;;;;;;;;;;5140610;27;20211;-69
2021/06/10 12:25:49;;;;;;;5.30;4.80;;;;;;;;;;5140334;27;20206;-69
2021/06/10 12:28:26;;;;;;;5.83;5.23;;;;;;;;;;5140603;27;20236;-69
2021/06/10 12:30:59;;;;;;;12.90;8.90;;;;;;;;;;5139592;27;20234;-69
2021/06/10 12:33:26;;;;;;;6.23;5.10;;;;;;;;;;5134323;27;20203;-68
2021/06/10 12:35:55;;;;;;;5.60;5.10;;;;;;;;;;5138382;27;20199;-68
2021/06/10 12:38:28;;;;;;;5.63;5.13;;;;;;;;;;5139209;27;20261;-69
2021/06/10 12:41:15;;;;;;;5.20;4.33;;;;;;;;;;5138204;27;20598;-69
2021/06/10 12:43:42;;;;;;;5.00;4.00;;;;;;;;;;5138542;27;20201;-69
2021/06/10 12:46:10;;;;;;;5.83;5.10;;;;;;;;;;5139692;27;20238;-68
2021/06/10 12:48:55;;;;;;;5.80;4.73;;;;;;;;;;5139716;27;20198;-69
2021/06/10 12:51:23;;;;;;;4.70;4.30;;;;;;;;;;5140422;27;20230;-70
2021/06/10 12:53:55;;;;;;;7.07;4.17;;;;;;;;;;5140114;27;20211;-68
2021/06/10 12:56:31;;;;;;;4.40;4.10;;;;;;;;;;5140340;27;20211;-68
2021/06/10 12:58:58;;;;;;;6.50;4.40;;;;;;;;;;5139975;27;20275;-69
2021/06/10 13:01:26;;;;;;;5.23;4.03;;;;;;;;;;5140289;27;20234;-68
2021/06/10 13:03:53;;;;;;;4.53;4.23;;;;;;;;;;5140008;27;20209;-68
2021/06/10 13:06:22;;;;;;;5.13;4.57;;;;;;;;;;5140294;27;20208;-68
2021/06/10 13:08:49;;;;;;;4.30;3.90;;;;;;;;;;5139774;27;20211;-68
2021/06/10 13:11:18;;;;;;;4.77;4.30;;;;;;;;;;5138968;27;20230;-68
2021/06/10 13:13:45;;;;;;;5.07;4.60;;;;;;;;;;5128694;27;20228;-68
2021/06/10 13:16:15;;;;;;;5.33;4.30;;;;;;;;;;5138849;27;20648;-67
2021/06/10 13:18:43;;;;;;;4.57;4.03;;;;;;;;;;5138792;27;20683;-68
2021/06/10 13:21:16;;;;;;;6.33;4.63;;;;;;;;;;5138733;27;20263;-67
2021/06/10 13:23:47;;;;;;;6.03;4.90;;;;;;;;;;5138465;27;20202;-67
2021/06/10 13:26:17;;;;;;;6.30;4.67;;;;;;;;;;5138175;27;20200;-68
2021/06/10 13:28:47;;;;;;;5.43;4.67;;;;;;;;;;5138782;27;20650;-68
2021/06/10 13:31:23;;;;;;;6.37;4.57;;;;;;;;;;5138682;27;20233;-68
2021/06/10 13:33:51;;;;;;;7.18;4.72;;;;;;;;;;5138586;27;20203;-68
2021/06/10 13:36:24;;;;;;;4.70;4.30;;;;;;;;;;5139286;27;20260;-67
2021/06/10 13:38:52;;;;;;;4.80;3.90;;;;;;;;;;5137147;27;20565;-69
2021/06/10 13:41:20;;;;;;;5.27;4.77;;;;;;;;;;5137664;27;20590;-67
2021/06/10 13:43:49;;;;;;;5.00;4.30;;;;;;;;;;5138201;27;20200;-68
2021/06/10 13:46:16;;;;;;;4.53;4.13;;;;;;;;;;5139554;27;20257;-68
2021/06/10 13:48:44;;;;;;;8.43;4.53;;;;;;;;;;5139057;27;20208;-67
2021/06/10 13:51:11;;;;;;;4.47;4.07;;;;;;;;;;5139068;27;20253;-68
2021/06/10 13:53:40;;;;;;;4.00;3.63;;;;;;;;;;5138627;27;20255;-68
2021/06/10 13:56:07;;;;;;;6.40;4.10;;;;;;;;;;5138697;27;20570;-68
2021/06/10 13:58:34;;;;;;;6.25;4.35;;;;;;;;;;5138577;27;20215;-69
2021/06/10 14:01:03;;;;;;;4.25;3.85;;;;;;;;;;5138536;27;20234;-68
2021/06/10 14:03:30;;;;;;;3.88;3.60;;;;;;;;;;5138252;27;20197;-67
2021/06/10 14:05:57;;;;;;;4.90;4.13;;;;;;;;;;5137880;27;20226;-66
2021/06/10 14:08:24;;;;;;;3.97;3.70;;;;;;;;;;5138017;27;20337;-68
2021/06/10 14:10:52;;;;;;;4.30;3.90;;;;;;;;;;5138553;27;20713;-68
2021/06/10 14:13:19;;;;;;;4.20;3.80;;;;;;;;;;5127138;27;20208;-69
2021/06/10 14:15:47;;;;;;;7.53;4.80;;;;;;;;;;5138077;27;20612;-69
2021/06/10 14:18:15;;;;;;;6.67;3.83;;;;;;;;;;5138275;27;20227;-68
2021/06/10 14:20:43;;;;;;;4.27;3.47;;;;;;;;;;5138339;27;20228;-68
2021/06/10 14:23:11;;;;;;;3.92;3.63;;;;;;;;;;5138130;27;20249;-69
2021/06/10 14:25:39;;;;;;;3.80;3.50;;;;;;;;;;5138527;27;20648;-69
2021/06/10 14:28:07;;;;;;;4.70;3.60;;;;;;;;;;5137888;27;20202;-71
2021/06/10 14:30:49;;;;;;;4.18;3.47;;;;;;;;;;5137901;27;20647;-69
2021/06/10 14:33:18;;;;;;;4.68;3.63;;;;;;;;;;5137732;28;20742;-66
2021/06/10 14:35:45;;;;;;;3.15;2.95;;;;;;;;;;5137940;28;20210;-68
2021/06/10 14:38:13;;;;;;;3.28;3.08;;;;;;;;;;5142729;27;20233;-66
2021/06/10 14:40:40;;;;;;;3.35;3.15;;;;;;;;;;5143634;27;20222;-68
2021/06/10 14:43:07;;;;;;;3.60;3.03;;;;;;;;;;5144757;27;20227;-66
2021/06/10 14:45:35;;;;;;;3.25;3.05;;;;;;;;;;5145244;27;20212;-67
2021/06/10 14:48:04;;;;;;;3.20;2.90;;;;;;;;;;5145295;27;20269;-68
2021/06/10 14:50:33;;;;;;;3.17;2.93;;;;;;;;;;5145223;27;20197;-72
2021/06/10 14:53:00;;;;;;;3.10;2.90;;;;;;;;;;5145204;27;20606;-71
2021/06/10 14:55:27;;;;;;;2.93;2.73;;;;;;;;;;5145386;27;20252;-70